sensor_id;sensor_type;location;lat;lon;timestamp;temperature;humidity
12504;DHT22;6316;48.118;-1.690;2023-03-23T00:01:07;13.50;99.90
12504;DHT22;6316;48.118;-1.690;2023-03-23T00:03:35;13.50;99.90
12504;DHT22;6316;48.118;-1.690;2023-03-23T00:06:01;13.50;99.90
12504;DHT22;6316;48.118;-1.690;2023-03-23T00:08:31;13.50;99.90
12504;DHT22;6316;48.118;-1.690;2023-03-23T00:10:57;13.50;99.90
12504;DHT22;6316;48.118;-1.690;2023-03-23T00:13:26;13.50;99.90
12504;DHT22;6316;48.118;-1.690;2023-03-23T00:15:52;13.50;99.90
12504;DHT22;6316;48.118;-1.690;2023-03-23T00:18:19;13.50;99.90
12504;DHT22;6316;48.118;-1.690;2023-03-23T00:20:49;13.50;99.90
12504;DHT22;6316;48.118;-1.690;2023-03-23T00:23:17;13.50;99.90
12504;DHT22;6316;48.118;-1.690;2023-03-23T00:25:54;13.60;99.90
12504;DHT22;6316;48.118;-1.690;2023-03-23T00:28:25;13.60;99.90
12504;DHT22;6316;48.118;-1.690;2023-03-23T00:31:03;13.60;99.90
12504;DHT22;6316;48.118;-1.690;2023-03-23T00:33:31;13.60;99.90
12504;DHT22;6316;48.118;-1.690;2023-03-23T00:36:04;13.60;99.90
12504;DHT22;6316;48.118;-1.690;2023-03-23T00:38:31;13.60;99.90
12504;DHT22;6316;48.118;-1.690;2023-03-23T00:40:57;13.60;99.90
12504;DHT22;6316;48.118;-1.690;2023-03-23T00:43:28;13.60;99.90
12504;DHT22;6316;48.118;-1.690;2023-03-23T00:45:55;13.60;99.90
12504;DHT22;6316;48.118;-1.690;2023-03-23T00:48:22;13.60;99.90
12504;DHT22;6316;48.118;-1.690;2023-03-23T00:50:49;13.60;99.90
12504;DHT22;6316;48.118;-1.690;2023-03-23T00:53:16;13.60;99.90
12504;DHT22;6316;48.118;-1.690;2023-03-23T00:55:45;13.60;99.90
12504;DHT22;6316;48.118;-1.690;2023-03-23T00:58:13;13.60;99.90
12504;DHT22;6316;48.118;-1.690;2023-03-23T01:00:39;13.60;99.90
12504;DHT22;6316;48.118;-1.690;2023-03-23T01:03:05;13.60;99.90
12504;DHT22;6316;48.118;-1.690;2023-03-23T01:05:35;13.50;99.90
12504;DHT22;6316;48.118;-1.690;2023-03-23T01:08:01;13.60;99.90
12504;DHT22;6316;48.118;-1.690;2023-03-23T01:10:27;13.60;99.90
12504;DHT22;6316;48.118;-1.690;2023-03-23T01:12:53;13.60;99.90
12504;DHT22;6316;48.118;-1.690;2023-03-23T01:15:20;13.60;99.90
12504;DHT22;6316;48.118;-1.690;2023-03-23T01:17:47;13.60;99.90
12504;DHT22;6316;48.118;-1.690;2023-03-23T01:20:14;13.60;99.90
12504;DHT22;6316;48.118;-1.690;2023-03-23T01:22:41;13.60;99.90
12504;DHT22;6316;48.118;-1.690;2023-03-23T01:25:09;13.60;99.90
12504;DHT22;6316;48.118;-1.690;2023-03-23T01:27:35;13.60;99.90
12504;DHT22;6316;48.118;-1.690;2023-03-23T01:30:02;13.60;99.90
12504;DHT22;6316;48.118;-1.690;2023-03-23T01:32:28;13.60;99.90
12504;DHT22;6316;48.118;-1.690;2023-03-23T01:34:54;13.60;99.90
12504;DHT22;6316;48.118;-1.690;2023-03-23T01:37:19;13.60;99.90
12504;DHT22;6316;48.118;-1.690;2023-03-23T01:39:45;13.60;99.90
12504;DHT22;6316;48.118;-1.690;2023-03-23T01:42:11;13.60;99.90
12504;DHT22;6316;48.118;-1.690;2023-03-23T01:47:03;13.60;99.90
12504;DHT22;6316;48.118;-1.690;2023-03-23T01:49:35;13.60;99.90
12504;DHT22;6316;48.118;-1.690;2023-03-23T01:52:03;13.60;99.90
12504;DHT22;6316;48.118;-1.690;2023-03-23T01:54:30;13.60;99.90
12504;DHT22;6316;48.118;-1.690;2023-03-23T01:57:04;13.50;99.90
12504;DHT22;6316;48.118;-1.690;2023-03-23T01:59:32;13.50;99.90
12504;DHT22;6316;48.118;-1.690;2023-03-23T02:01:59;13.60;99.90
12504;DHT22;6316;48.118;-1.690;2023-03-23T02:04:26;13.50;99.90
12504;DHT22;6316;48.118;-1.690;2023-03-23T02:06:53;13.50;99.90
12504;DHT22;6316;48.118;-1.690;2023-03-23T02:09:20;13.50;99.90
12504;DHT22;6316;48.118;-1.690;2023-03-23T02:11:47;13.50;99.90
12504;DHT22;6316;48.118;-1.690;2023-03-23T02:14:15;13.50;99.90
12504;DHT22;6316;48.118;-1.690;2023-03-23T02:16:50;13.50;99.90
12504;DHT22;6316;48.118;-1.690;2023-03-23T02:35:55;13.40;99.90
12504;DHT22;6316;48.118;-1.690;2023-03-23T02:38:33;13.40;99.90
12504;DHT22;6316;48.118;-1.690;2023-03-23T02:41:02;13.40;99.90
12504;DHT22;6316;48.118;-1.690;2023-03-23T02:43:34;13.40;99.90
12504;DHT22;6316;48.118;-1.690;2023-03-23T02:46:04;13.40;99.90
12504;DHT22;6316;48.118;-1.690;2023-03-23T02:48:33;13.40;99.90
12504;DHT22;6316;48.118;-1.690;2023-03-23T02:50:59;13.40;99.90
12504;DHT22;6316;48.118;-1.690;2023-03-23T02:53:26;13.40;99.90
12504;DHT22;6316;48.118;-1.690;2023-03-23T02:55:54;13.40;99.90
12504;DHT22;6316;48.118;-1.690;2023-03-23T02:58:21;13.40;99.90
12504;DHT22;6316;48.118;-1.690;2023-03-23T03:00:49;13.40;99.90
12504;DHT22;6316;48.118;-1.690;2023-03-23T03:03:19;13.40;99.90
12504;DHT22;6316;48.118;-1.690;2023-03-23T03:08:57;13.30;99.90
12504;DHT22;6316;48.118;-1.690;2023-03-23T03:11:24;13.30;99.90
12504;DHT22;6316;48.118;-1.690;2023-03-23T03:14:07;13.30;99.90
12504;DHT22;6316;48.118;-1.690;2023-03-23T03:17:08;13.20;99.90
12504;DHT22;6316;48.118;-1.690;2023-03-23T03:19:38;13.20;99.90
12504;DHT22;6316;48.118;-1.690;2023-03-23T03:22:06;13.20;99.90
12504;DHT22;6316;48.118;-1.690;2023-03-23T03:24:33;13.20;99.90
12504;DHT22;6316;48.118;-1.690;2023-03-23T03:27:04;13.20;99.90
12504;DHT22;6316;48.118;-1.690;2023-03-23T03:29:37;13.20;99.90
12504;DHT22;6316;48.118;-1.690;2023-03-23T03:32:10;13.10;99.90
12504;DHT22;6316;48.118;-1.690;2023-03-23T03:34:37;13.20;99.90
12504;DHT22;6316;48.118;-1.690;2023-03-23T03:37:04;13.20;99.90
12504;DHT22;6316;48.118;-1.690;2023-03-23T03:39:34;13.20;99.90
12504;DHT22;6316;48.118;-1.690;2023-03-23T03:42:01;13.20;99.90
12504;DHT22;6316;48.118;-1.690;2023-03-23T03:44:27;13.20;99.90
12504;DHT22;6316;48.118;-1.690;2023-03-23T03:46:53;13.20;99.90
12504;DHT22;6316;48.118;-1.690;2023-03-23T03:49:19;13.20;99.90
12504;DHT22;6316;48.118;-1.690;2023-03-23T03:51:44;13.20;99.90
12504;DHT22;6316;48.118;-1.690;2023-03-23T03:54:10;13.10;99.90
12504;DHT22;6316;48.118;-1.690;2023-03-23T03:56:37;13.20;99.90
12504;DHT22;6316;48.118;-1.690;2023-03-23T03:59:07;13.20;99.90
12504;DHT22;6316;48.118;-1.690;2023-03-23T04:01:33;13.20;99.90
12504;DHT22;6316;48.118;-1.690;2023-03-23T04:04:00;13.20;99.90
12504;DHT22;6316;48.118;-1.690;2023-03-23T04:06:25;13.20;99.90
12504;DHT22;6316;48.118;-1.690;2023-03-23T04:08:54;13.20;99.90
12504;DHT22;6316;48.118;-1.690;2023-03-23T04:11:20;13.20;99.90
12504;DHT22;6316;48.118;-1.690;2023-03-23T04:13:46;13.20;99.90
12504;DHT22;6316;48.118;-1.690;2023-03-23T04:16:12;13.20;99.90
12504;DHT22;6316;48.118;-1.690;2023-03-23T04:18:38;13.20;99.90
12504;DHT22;6316;48.118;-1.690;2023-03-23T04:21:04;13.20;99.90
12504;DHT22;6316;48.118;-1.690;2023-03-23T04:23:33;13.20;99.90
12504;DHT22;6316;48.118;-1.690;2023-03-23T04:26:01;13.20;99.90
12504;DHT22;6316;48.118;-1.690;2023-03-23T04:28:28;13.20;99.90
12504;DHT22;6316;48.118;-1.690;2023-03-23T04:30:55;13.30;99.90
12504;DHT22;6316;48.118;-1.690;2023-03-23T04:33:22;13.30;99.90
12504;DHT22;6316;48.118;-1.690;2023-03-23T04:35:50;13.30;99.90
12504;DHT22;6316;48.118;-1.690;2023-03-23T04:38:17;13.30;99.90
12504;DHT22;6316;48.118;-1.690;2023-03-23T04:40:46;13.30;99.90
12504;DHT22;6316;48.118;-1.690;2023-03-23T04:43:12;13.30;99.90
12504;DHT22;6316;48.118;-1.690;2023-03-23T04:45:40;13.30;99.90
12504;DHT22;6316;48.118;-1.690;2023-03-23T04:48:11;13.30;99.90
12504;DHT22;6316;48.118;-1.690;2023-03-23T04:50:37;13.30;99.90
12504;DHT22;6316;48.118;-1.690;2023-03-23T04:53:04;13.30;99.90
12504;DHT22;6316;48.118;-1.690;2023-03-23T04:55:31;13.30;99.90
12504;DHT22;6316;48.118;-1.690;2023-03-23T04:57:57;13.30;99.90
12504;DHT22;6316;48.118;-1.690;2023-03-23T05:00:27;13.30;99.90
12504;DHT22;6316;48.118;-1.690;2023-03-23T05:02:52;13.30;99.90
12504;DHT22;6316;48.118;-1.690;2023-03-23T05:05:22;13.30;99.90
12504;DHT22;6316;48.118;-1.690;2023-03-23T05:07:49;13.30;99.90
12504;DHT22;6316;48.118;-1.690;2023-03-23T05:10:15;13.30;99.90
12504;DHT22;6316;48.118;-1.690;2023-03-23T05:12:42;13.30;99.90
12504;DHT22;6316;48.118;-1.690;2023-03-23T05:15:09;13.30;99.90
12504;DHT22;6316;48.118;-1.690;2023-03-23T05:17:35;13.30;99.90
12504;DHT22;6316;48.118;-1.690;2023-03-23T05:20:03;13.30;99.90
12504;DHT22;6316;48.118;-1.690;2023-03-23T05:22:30;13.30;99.90
12504;DHT22;6316;48.118;-1.690;2023-03-23T05:24:59;13.30;99.90
12504;DHT22;6316;48.118;-1.690;2023-03-23T05:27:28;13.30;99.90
12504;DHT22;6316;48.118;-1.690;2023-03-23T05:29:56;13.30;99.90
12504;DHT22;6316;48.118;-1.690;2023-03-23T05:32:27;13.30;99.90
12504;DHT22;6316;48.118;-1.690;2023-03-23T05:34:58;13.30;99.90
12504;DHT22;6316;48.118;-1.690;2023-03-23T05:37:25;13.30;99.90
12504;DHT22;6316;48.118;-1.690;2023-03-23T05:39:52;13.30;99.90
12504;DHT22;6316;48.118;-1.690;2023-03-23T05:42:22;13.40;99.90
12504;DHT22;6316;48.118;-1.690;2023-03-23T05:44:49;13.40;99.90
12504;DHT22;6316;48.118;-1.690;2023-03-23T05:47:15;13.30;99.90
12504;DHT22;6316;48.118;-1.690;2023-03-23T05:49:41;13.30;99.90
12504;DHT22;6316;48.118;-1.690;2023-03-23T05:52:07;13.30;99.90
12504;DHT22;6316;48.118;-1.690;2023-03-23T05:54:33;13.40;99.90
12504;DHT22;6316;48.118;-1.690;2023-03-23T05:56:59;13.40;99.90
12504;DHT22;6316;48.118;-1.690;2023-03-23T05:59:25;13.40;99.90
12504;DHT22;6316;48.118;-1.690;2023-03-23T06:01:52;13.30;99.90
12504;DHT22;6316;48.118;-1.690;2023-03-23T06:04:19;13.30;99.90
12504;DHT22;6316;48.118;-1.690;2023-03-23T06:06:44;13.40;99.90
12504;DHT22;6316;48.118;-1.690;2023-03-23T06:09:11;13.40;99.90
12504;DHT22;6316;48.118;-1.690;2023-03-23T06:11:37;13.40;99.90
12504;DHT22;6316;48.118;-1.690;2023-03-23T06:14:03;13.40;99.90
12504;DHT22;6316;48.118;-1.690;2023-03-23T06:16:29;13.40;99.90
12504;DHT22;6316;48.118;-1.690;2023-03-23T06:18:54;13.40;99.90
12504;DHT22;6316;48.118;-1.690;2023-03-23T06:21:22;13.40;99.90
12504;DHT22;6316;48.118;-1.690;2023-03-23T06:23:47;13.40;99.90
12504;DHT22;6316;48.118;-1.690;2023-03-23T06:26:14;13.40;99.90
12504;DHT22;6316;48.118;-1.690;2023-03-23T06:28:42;13.40;99.90
12504;DHT22;6316;48.118;-1.690;2023-03-23T06:31:08;13.40;99.90
12504;DHT22;6316;48.118;-1.690;2023-03-23T06:33:38;13.40;99.90
12504;DHT22;6316;48.118;-1.690;2023-03-23T06:36:05;13.40;99.90
12504;DHT22;6316;48.118;-1.690;2023-03-23T06:38:31;13.40;99.90
12504;DHT22;6316;48.118;-1.690;2023-03-23T06:40:57;13.40;99.90
12504;DHT22;6316;48.118;-1.690;2023-03-23T06:43:23;13.40;99.90
12504;DHT22;6316;48.118;-1.690;2023-03-23T06:45:50;13.50;99.90
12504;DHT22;6316;48.118;-1.690;2023-03-23T06:48:17;13.50;99.90
12504;DHT22;6316;48.118;-1.690;2023-03-23T06:50:46;13.50;99.90
12504;DHT22;6316;48.118;-1.690;2023-03-23T06:53:12;13.50;99.90
12504;DHT22;6316;48.118;-1.690;2023-03-23T06:55:38;13.50;99.90
12504;DHT22;6316;48.118;-1.690;2023-03-23T06:58:05;13.60;99.90
12504;DHT22;6316;48.118;-1.690;2023-03-23T07:00:32;13.60;99.90
12504;DHT22;6316;48.118;-1.690;2023-03-23T07:02:58;13.70;99.90
12504;DHT22;6316;48.118;-1.690;2023-03-23T07:05:24;13.70;99.90
12504;DHT22;6316;48.118;-1.690;2023-03-23T07:07:50;13.70;99.90
12504;DHT22;6316;48.118;-1.690;2023-03-23T07:10:16;13.70;99.90
12504;DHT22;6316;48.118;-1.690;2023-03-23T07:12:42;13.80;99.90
12504;DHT22;6316;48.118;-1.690;2023-03-23T07:15:09;13.80;99.90
12504;DHT22;6316;48.118;-1.690;2023-03-23T07:17:36;13.90;99.90
12504;DHT22;6316;48.118;-1.690;2023-03-23T07:20:03;13.90;99.90
12504;DHT22;6316;48.118;-1.690;2023-03-23T07:22:29;14.00;99.90
12504;DHT22;6316;48.118;-1.690;2023-03-23T07:24:54;14.00;99.90
12504;DHT22;6316;48.118;-1.690;2023-03-23T07:27:20;14.00;99.90
12504;DHT22;6316;48.118;-1.690;2023-03-23T07:29:46;14.10;99.90
12504;DHT22;6316;48.118;-1.690;2023-03-23T07:32:12;14.10;99.90
12504;DHT22;6316;48.118;-1.690;2023-03-23T07:34:38;14.20;99.90
12504;DHT22;6316;48.118;-1.690;2023-03-23T07:37:04;14.20;99.90
12504;DHT22;6316;48.118;-1.690;2023-03-23T07:39:30;14.20;99.90
12504;DHT22;6316;48.118;-1.690;2023-03-23T07:41:56;14.30;99.90
12504;DHT22;6316;48.118;-1.690;2023-03-23T07:44:22;14.30;99.90
12504;DHT22;6316;48.118;-1.690;2023-03-23T07:46:48;14.40;99.90
12504;DHT22;6316;48.118;-1.690;2023-03-23T07:49:14;14.40;99.90
12504;DHT22;6316;48.118;-1.690;2023-03-23T07:51:40;14.50;99.90
12504;DHT22;6316;48.118;-1.690;2023-03-23T07:54:06;14.60;99.90
12504;DHT22;6316;48.118;-1.690;2023-03-23T07:56:36;14.60;99.90
12504;DHT22;6316;48.118;-1.690;2023-03-23T07:59:05;14.60;99.90
12504;DHT22;6316;48.118;-1.690;2023-03-23T08:01:31;14.60;99.90
12504;DHT22;6316;48.118;-1.690;2023-03-23T08:03:57;14.60;99.90
12504;DHT22;6316;48.118;-1.690;2023-03-23T08:06:27;14.60;99.90
12504;DHT22;6316;48.118;-1.690;2023-03-23T08:08:53;14.60;99.90
12504;DHT22;6316;48.118;-1.690;2023-03-23T08:11:20;14.60;99.90
12504;DHT22;6316;48.118;-1.690;2023-03-23T08:13:46;14.60;99.90
12504;DHT22;6316;48.118;-1.690;2023-03-23T08:16:12;14.70;99.90
12504;DHT22;6316;48.118;-1.690;2023-03-23T08:18:39;14.70;99.90
12504;DHT22;6316;48.118;-1.690;2023-03-23T08:21:06;14.70;99.90
12504;DHT22;6316;48.118;-1.690;2023-03-23T08:23:35;14.70;99.90
12504;DHT22;6316;48.118;-1.690;2023-03-23T08:26:05;14.70;99.90
12504;DHT22;6316;48.118;-1.690;2023-03-23T08:28:33;14.80;99.90
12504;DHT22;6316;48.118;-1.690;2023-03-23T08:31:00;14.80;99.90
12504;DHT22;6316;48.118;-1.690;2023-03-23T08:33:26;14.80;99.90
12504;DHT22;6316;48.118;-1.690;2023-03-23T08:35:57;14.90;99.90
12504;DHT22;6316;48.118;-1.690;2023-03-23T08:38:24;15.00;99.90
12504;DHT22;6316;48.118;-1.690;2023-03-23T08:40:50;15.10;99.90
12504;DHT22;6316;48.118;-1.690;2023-03-23T08:43:17;15.10;99.90
12504;DHT22;6316;48.118;-1.690;2023-03-23T08:45:43;15.20;99.90
12504;DHT22;6316;48.118;-1.690;2023-03-23T08:48:09;15.20;99.90
12504;DHT22;6316;48.118;-1.690;2023-03-23T08:50:35;15.20;99.90
12504;DHT22;6316;48.118;-1.690;2023-03-23T08:53:01;15.20;99.90
12504;DHT22;6316;48.118;-1.690;2023-03-23T08:55:28;15.20;99.90
12504;DHT22;6316;48.118;-1.690;2023-03-23T08:57:54;15.20;99.90
12504;DHT22;6316;48.118;-1.690;2023-03-23T09:00:21;15.20;99.90
12504;DHT22;6316;48.118;-1.690;2023-03-23T09:02:51;15.20;99.90
12504;DHT22;6316;48.118;-1.690;2023-03-23T09:05:19;15.10;99.90
12504;DHT22;6316;48.118;-1.690;2023-03-23T09:08:00;15.10;99.90
12504;DHT22;6316;48.118;-1.690;2023-03-23T09:10:27;15.10;99.90
12504;DHT22;6316;48.118;-1.690;2023-03-23T09:12:56;15.00;99.90
12504;DHT22;6316;48.118;-1.690;2023-03-23T09:15:22;15.00;99.90
12504;DHT22;6316;48.118;-1.690;2023-03-23T09:17:50;14.90;99.90
12504;DHT22;6316;48.118;-1.690;2023-03-23T09:20:21;14.90;99.90
12504;DHT22;6316;48.118;-1.690;2023-03-23T09:22:51;14.90;99.90
12504;DHT22;6316;48.118;-1.690;2023-03-23T09:25:19;15.00;99.90
12504;DHT22;6316;48.118;-1.690;2023-03-23T09:27:49;15.00;99.90
12504;DHT22;6316;48.118;-1.690;2023-03-23T09:30:18;15.10;99.90
12504;DHT22;6316;48.118;-1.690;2023-03-23T09:32:44;15.20;99.90
12504;DHT22;6316;48.118;-1.690;2023-03-23T09:35:11;15.20;99.90
12504;DHT22;6316;48.118;-1.690;2023-03-23T09:37:39;15.20;99.90
12504;DHT22;6316;48.118;-1.690;2023-03-23T09:40:10;15.30;99.90
12504;DHT22;6316;48.118;-1.690;2023-03-23T09:50:35;15.80;99.90
12504;DHT22;6316;48.118;-1.690;2023-03-23T09:53:14;15.90;99.90
12504;DHT22;6316;48.118;-1.690;2023-03-23T09:55:42;16.20;99.90
12504;DHT22;6316;48.118;-1.690;2023-03-23T09:58:25;16.30;99.90
12504;DHT22;6316;48.118;-1.690;2023-03-23T10:00:56;16.40;99.90
12504;DHT22;6316;48.118;-1.690;2023-03-23T10:03:27;16.40;99.90
12504;DHT22;6316;48.118;-1.690;2023-03-23T10:05:56;16.40;99.90
12504;DHT22;6316;48.118;-1.690;2023-03-23T10:08:24;16.30;99.90
12504;DHT22;6316;48.118;-1.690;2023-03-23T10:11:05;16.20;99.90
12504;DHT22;6316;48.118;-1.690;2023-03-23T10:21:59;16.30;99.90
12504;DHT22;6316;48.118;-1.690;2023-03-23T10:24:34;16.40;99.90
12504;DHT22;6316;48.118;-1.690;2023-03-23T10:29:50;16.30;99.90
12504;DHT22;6316;48.118;-1.690;2023-03-23T10:32:21;16.40;99.90
12504;DHT22;6316;48.118;-1.690;2023-03-23T10:35:00;16.40;99.90
12504;DHT22;6316;48.118;-1.690;2023-03-23T10:37:37;16.50;99.90
12504;DHT22;6316;48.118;-1.690;2023-03-23T10:40:12;16.50;99.90
12504;DHT22;6316;48.118;-1.690;2023-03-23T10:42:40;16.50;99.90
12504;DHT22;6316;48.118;-1.690;2023-03-23T10:45:27;16.50;99.90
12504;DHT22;6316;48.118;-1.690;2023-03-23T10:50:37;16.40;99.90
12504;DHT22;6316;48.118;-1.690;2023-03-23T10:53:31;16.30;99.90
12504;DHT22;6316;48.118;-1.690;2023-03-23T10:55:58;16.20;99.90
12504;DHT22;6316;48.118;-1.690;2023-03-23T10:58:35;16.10;99.90
12504;DHT22;6316;48.118;-1.690;2023-03-23T11:01:03;16.00;99.90
12504;DHT22;6316;48.118;-1.690;2023-03-23T11:03:37;16.00;99.90
12504;DHT22;6316;48.118;-1.690;2023-03-23T11:06:05;16.00;99.90
12504;DHT22;6316;48.118;-1.690;2023-03-23T11:09:09;15.90;99.90
12504;DHT22;6316;48.118;-1.690;2023-03-23T11:11:38;15.90;99.90
12504;DHT22;6316;48.118;-1.690;2023-03-23T11:14:19;15.90;99.90
12504;DHT22;6316;48.118;-1.690;2023-03-23T11:17:00;15.90;99.90
12504;DHT22;6316;48.118;-1.690;2023-03-23T11:19:35;15.80;99.90
12504;DHT22;6316;48.118;-1.690;2023-03-23T11:24:36;15.90;99.90
12504;DHT22;6316;48.118;-1.690;2023-03-23T11:27:03;16.00;99.90
12504;DHT22;6316;48.118;-1.690;2023-03-23T11:29:33;16.10;99.90
12504;DHT22;6316;48.118;-1.690;2023-03-23T11:34:30;16.30;99.90
12504;DHT22;6316;48.118;-1.690;2023-03-23T11:40:10;16.20;99.90
12504;DHT22;6316;48.118;-1.690;2023-03-23T11:45:32;16.10;99.90
12504;DHT22;6316;48.118;-1.690;2023-03-23T11:50:52;16.00;99.90
12504;DHT22;6316;48.118;-1.690;2023-03-23T11:56:08;16.00;99.90
12504;DHT22;6316;48.118;-1.690;2023-03-23T11:58:36;16.10;99.90
12504;DHT22;6316;48.118;-1.690;2023-03-23T12:01:26;16.10;99.90
12504;DHT22;6316;48.118;-1.690;2023-03-23T12:09:47;16.30;99.90
12504;DHT22;6316;48.118;-1.690;2023-03-23T12:15:15;16.50;99.90
12504;DHT22;6316;48.118;-1.690;2023-03-23T12:31:25;17.20;99.90
12504;DHT22;6316;48.118;-1.690;2023-03-23T12:44:30;17.60;99.90
12504;DHT22;6316;48.118;-1.690;2023-03-23T12:47:05;17.60;99.90
12504;DHT22;6316;48.118;-1.690;2023-03-23T12:49:43;17.60;99.90
12504;DHT22;6316;48.118;-1.690;2023-03-23T12:52:26;17.70;99.90
12504;DHT22;6316;48.118;-1.690;2023-03-23T12:58:17;17.70;99.90
12504;DHT22;6316;48.118;-1.690;2023-03-23T13:00:57;17.80;99.90
12504;DHT22;6316;48.118;-1.690;2023-03-23T13:03:36;17.80;99.90
12504;DHT22;6316;48.118;-1.690;2023-03-23T13:06:05;17.80;99.90
12504;DHT22;6316;48.118;-1.690;2023-03-23T13:08:41;17.80;99.90
12504;DHT22;6316;48.118;-1.690;2023-03-23T13:11:14;17.80;99.90
12504;DHT22;6316;48.118;-1.690;2023-03-23T13:13:53;17.70;99.90
12504;DHT22;6316;48.118;-1.690;2023-03-23T13:16:45;17.70;99.90
12504;DHT22;6316;48.118;-1.690;2023-03-23T13:19:29;17.70;99.90
12504;DHT22;6316;48.118;-1.690;2023-03-23T13:22:02;17.70;99.90
12504;DHT22;6316;48.118;-1.690;2023-03-23T13:24:33;17.70;99.90
12504;DHT22;6316;48.118;-1.690;2023-03-23T13:27:00;17.70;99.90
12504;DHT22;6316;48.118;-1.690;2023-03-23T13:29:27;17.70;99.90
12504;DHT22;6316;48.118;-1.690;2023-03-23T13:32:12;17.70;99.90
12504;DHT22;6316;48.118;-1.690;2023-03-23T13:34:40;17.70;99.90
12504;DHT22;6316;48.118;-1.690;2023-03-23T13:37:18;17.70;99.90
12504;DHT22;6316;48.118;-1.690;2023-03-23T13:39:51;17.60;99.90
12504;DHT22;6316;48.118;-1.690;2023-03-23T13:42:21;17.60;99.90
12504;DHT22;6316;48.118;-1.690;2023-03-23T13:50:42;17.50;99.90
12504;DHT22;6316;48.118;-1.690;2023-03-23T13:53:14;17.50;99.90
12504;DHT22;6316;48.118;-1.690;2023-03-23T13:55:42;17.40;99.90
12504;DHT22;6316;48.118;-1.690;2023-03-23T14:01:17;17.30;99.90
12504;DHT22;6316;48.118;-1.690;2023-03-23T14:03:48;17.20;99.90
12504;DHT22;6316;48.118;-1.690;2023-03-23T14:06:24;17.20;99.90
12504;DHT22;6316;48.118;-1.690;2023-03-23T14:08:54;17.20;99.90
12504;DHT22;6316;48.118;-1.690;2023-03-23T14:11:28;17.10;99.90
12504;DHT22;6316;48.118;-1.690;2023-03-23T14:14:15;17.10;99.90
12504;DHT22;6316;48.118;-1.690;2023-03-23T14:16:44;17.20;99.90
12504;DHT22;6316;48.118;-1.690;2023-03-23T14:19:27;17.20;99.90
12504;DHT22;6316;48.118;-1.690;2023-03-23T14:22:02;17.20;99.90
12504;DHT22;6316;48.118;-1.690;2023-03-23T14:24:31;17.20;99.90
12504;DHT22;6316;48.118;-1.690;2023-03-23T14:27:10;17.20;99.90
12504;DHT22;6316;48.118;-1.690;2023-03-23T14:29:36;17.10;99.90
12504;DHT22;6316;48.118;-1.690;2023-03-23T14:32:04;17.10;99.90
12504;DHT22;6316;48.118;-1.690;2023-03-23T14:34:33;17.00;99.90
12504;DHT22;6316;48.118;-1.690;2023-03-23T14:36:59;16.90;99.90
12504;DHT22;6316;48.118;-1.690;2023-03-23T14:39:28;16.80;99.90
12504;DHT22;6316;48.118;-1.690;2023-03-23T14:42:04;16.70;99.90
12504;DHT22;6316;48.118;-1.690;2023-03-23T14:44:35;16.60;99.90
12504;DHT22;6316;48.118;-1.690;2023-03-23T14:47:05;16.50;99.90
12504;DHT22;6316;48.118;-1.690;2023-03-23T14:49:34;16.40;99.90
12504;DHT22;6316;48.118;-1.690;2023-03-23T14:52:08;16.30;99.90
12504;DHT22;6316;48.118;-1.690;2023-03-23T14:54:34;16.20;99.90
12504;DHT22;6316;48.118;-1.690;2023-03-23T14:59:49;16.20;99.90
12504;DHT22;6316;48.118;-1.690;2023-03-23T15:02:36;16.10;99.90
12504;DHT22;6316;48.118;-1.690;2023-03-23T15:05:16;16.00;99.90
12504;DHT22;6316;48.118;-1.690;2023-03-23T15:07:47;15.90;99.90
12504;DHT22;6316;48.118;-1.690;2023-03-23T15:10:18;15.80;99.90
12504;DHT22;6316;48.118;-1.690;2023-03-23T15:12:46;15.70;99.90
12504;DHT22;6316;48.118;-1.690;2023-03-23T15:15:31;15.70;99.90
12504;DHT22;6316;48.118;-1.690;2023-03-23T15:17:58;15.60;99.90
12504;DHT22;6316;48.118;-1.690;2023-03-23T15:20:50;15.50;99.90
12504;DHT22;6316;48.118;-1.690;2023-03-23T15:23:21;15.50;99.90
12504;DHT22;6316;48.118;-1.690;2023-03-23T15:25:52;15.40;99.90
12504;DHT22;6316;48.118;-1.690;2023-03-23T15:28:22;15.30;99.90
12504;DHT22;6316;48.118;-1.690;2023-03-23T15:30:55;15.30;99.90
12504;DHT22;6316;48.118;-1.690;2023-03-23T15:33:23;15.30;99.90
12504;DHT22;6316;48.118;-1.690;2023-03-23T15:35:54;15.20;99.90
12504;DHT22;6316;48.118;-1.690;2023-03-23T15:38:30;15.20;99.90
12504;DHT22;6316;48.118;-1.690;2023-03-23T15:41:00;15.10;99.90
12504;DHT22;6316;48.118;-1.690;2023-03-23T15:43:32;15.10;99.90
12504;DHT22;6316;48.118;-1.690;2023-03-23T15:46:16;15.00;99.90
12504;DHT22;6316;48.118;-1.690;2023-03-23T15:51:28;14.90;99.90
12504;DHT22;6316;48.118;-1.690;2023-03-23T15:53:55;14.90;99.90
12504;DHT22;6316;48.118;-1.690;2023-03-23T15:56:22;14.90;99.90
12504;DHT22;6316;48.118;-1.690;2023-03-23T15:58:48;14.80;99.90
12504;DHT22;6316;48.118;-1.690;2023-03-23T16:03:58;14.70;99.90
12504;DHT22;6316;48.118;-1.690;2023-03-23T16:06:26;14.70;99.90
12504;DHT22;6316;48.118;-1.690;2023-03-23T16:08:56;14.60;99.90
12504;DHT22;6316;48.118;-1.690;2023-03-23T16:11:23;14.60;99.90
12504;DHT22;6316;48.118;-1.690;2023-03-23T16:13:49;14.60;99.90
12504;DHT22;6316;48.118;-1.690;2023-03-23T16:16:21;14.60;99.90
12504;DHT22;6316;48.118;-1.690;2023-03-23T16:18:47;14.50;99.90
12504;DHT22;6316;48.118;-1.690;2023-03-23T16:21:13;14.50;99.90
12504;DHT22;6316;48.118;-1.690;2023-03-23T16:23:39;14.50;99.90
12504;DHT22;6316;48.118;-1.690;2023-03-23T16:26:05;14.40;99.90
12504;DHT22;6316;48.118;-1.690;2023-03-23T16:28:31;14.40;99.90
12504;DHT22;6316;48.118;-1.690;2023-03-23T16:30:57;14.40;99.90
12504;DHT22;6316;48.118;-1.690;2023-03-23T16:33:22;14.40;99.90
12504;DHT22;6316;48.118;-1.690;2023-03-23T16:35:48;14.40;99.90
12504;DHT22;6316;48.118;-1.690;2023-03-23T16:38:15;14.40;99.90
12504;DHT22;6316;48.118;-1.690;2023-03-23T16:40:43;14.40;99.90
12504;DHT22;6316;48.118;-1.690;2023-03-23T16:43:09;14.40;99.90
12504;DHT22;6316;48.118;-1.690;2023-03-23T16:45:37;14.40;99.90
12504;DHT22;6316;48.118;-1.690;2023-03-23T16:48:03;14.40;99.90
12504;DHT22;6316;48.118;-1.690;2023-03-23T16:50:30;14.40;99.90
12504;DHT22;6316;48.118;-1.690;2023-03-23T16:52:56;14.40;99.90
12504;DHT22;6316;48.118;-1.690;2023-03-23T16:55:23;14.40;99.90
12504;DHT22;6316;48.118;-1.690;2023-03-23T16:57:51;14.40;99.90
12504;DHT22;6316;48.118;-1.690;2023-03-23T17:00:17;14.40;99.90
12504;DHT22;6316;48.118;-1.690;2023-03-23T17:02:45;14.40;99.90
12504;DHT22;6316;48.118;-1.690;2023-03-23T17:05:12;14.40;99.90
12504;DHT22;6316;48.118;-1.690;2023-03-23T17:07:39;14.40;99.90
12504;DHT22;6316;48.118;-1.690;2023-03-23T17:10:07;14.30;99.90
12504;DHT22;6316;48.118;-1.690;2023-03-23T17:12:34;14.30;99.90
12504;DHT22;6316;48.118;-1.690;2023-03-23T17:15:00;14.30;99.90
12504;DHT22;6316;48.118;-1.690;2023-03-23T17:17:26;14.30;99.90
12504;DHT22;6316;48.118;-1.690;2023-03-23T17:19:52;14.30;99.90
12504;DHT22;6316;48.118;-1.690;2023-03-23T17:22:17;14.30;99.90
12504;DHT22;6316;48.118;-1.690;2023-03-23T17:24:43;14.30;99.90
12504;DHT22;6316;48.118;-1.690;2023-03-23T17:27:13;14.30;99.90
12504;DHT22;6316;48.118;-1.690;2023-03-23T17:29:38;14.30;99.90
12504;DHT22;6316;48.118;-1.690;2023-03-23T17:32:04;14.30;99.90
12504;DHT22;6316;48.118;-1.690;2023-03-23T17:34:30;14.30;99.90
12504;DHT22;6316;48.118;-1.690;2023-03-23T17:36:56;14.20;99.90